sensor_id;sensor_type;location;lat;lon;timestamp;pressure;altitude;pressure_sealevel;temperature;humidity
56402;BME280;42299;35.160;26.100;2023-09-18T00:00:34;100813.44;;;24.68;100.00
56402;BME280;42299;35.160;26.100;2023-09-18T00:10:57;100810.88;;;24.65;100.00
56402;BME280;42299;35.160;26.100;2023-09-18T00:21:23;100784.13;;;24.58;100.00
56402;BME280;42299;35.160;26.100;2023-09-18T00:31:46;100786.00;;;24.56;100.00
56402;BME280;42299;35.160;26.100;2023-09-18T00:42:11;100783.34;;;24.55;100.00
56402;BME280;42299;35.160;26.100;2023-09-18T00:52:35;100771.72;;;24.54;100.00
56402;BME280;42299;35.160;26.100;2023-09-18T01:03:00;100756.63;;;24.49;100.00
56402;BME280;42299;35.160;26.100;2023-09-18T01:13:29;100763.03;;;24.46;100.00
56402;BME280;42299;35.160;26.100;2023-09-18T01:23:54;100757.97;;;24.39;100.00
56402;BME280;42299;35.160;26.100;2023-09-18T01:34:17;100758.94;;;24.36;100.00
56402;BME280;42299;35.160;26.100;2023-09-18T01:44:43;100757.13;;;24.37;100.00
56402;BME280;42299;35.160;26.100;2023-09-18T01:55:07;100752.66;;;24.36;100.00
56402;BME280;42299;35.160;26.100;2023-09-18T02:05:31;100752.03;;;24.29;100.00
56402;BME280;42299;35.160;26.100;2023-09-18T02:15:57;100751.25;;;24.27;100.00
56402;BME280;42299;35.160;26.100;2023-09-18T02:26:24;100757.84;;;24.18;100.00
56402;BME280;42299;35.160;26.100;2023-09-18T02:36:46;100756.97;;;24.19;100.00
56402;BME280;42299;35.160;26.100;2023-09-18T02:47:13;100753.38;;;24.19;100.00
56402;BME280;42299;35.160;26.100;2023-09-18T02:57:36;100758.78;;;24.19;100.00
56402;BME280;42299;35.160;26.100;2023-09-18T03:08:00;100775.84;;;24.19;100.00
56402;BME280;42299;35.160;26.100;2023-09-18T03:18:23;100772.28;;;24.17;100.00
56402;BME280;42299;35.160;26.100;2023-09-18T03:28:48;100791.16;;;24.17;100.00
56402;BME280;42299;35.160;26.100;2023-09-18T03:39:11;100799.31;;;24.16;100.00
56402;BME280;42299;35.160;26.100;2023-09-18T03:49:35;100813.69;;;24.16;100.00
56402;BME280;42299;35.160;26.100;2023-09-18T03:59:57;100808.38;;;24.15;100.00
56402;BME280;42299;35.160;26.100;2023-09-18T04:10:22;100815.50;;;24.16;100.00
56402;BME280;42299;35.160;26.100;2023-09-18T04:20:45;100827.94;;;24.21;100.00
56402;BME280;42299;35.160;26.100;2023-09-18T04:31:09;100840.94;;;24.34;100.00
56402;BME280;42299;35.160;26.100;2023-09-18T04:41:33;100847.06;;;24.37;100.00
56402;BME280;42299;35.160;26.100;2023-09-18T04:51:59;100846.09;;;24.40;100.00
56402;BME280;42299;35.160;26.100;2023-09-18T05:02:24;100847.66;;;24.45;100.00
56402;BME280;42299;35.160;26.100;2023-09-18T05:12:48;100849.75;;;24.60;100.00
56402;BME280;42299;35.160;26.100;2023-09-18T05:23:11;100847.47;;;24.72;100.00
56402;BME280;42299;35.160;26.100;2023-09-18T05:33:36;100861.06;;;24.92;100.00
56402;BME280;42299;35.160;26.100;2023-09-18T05:43:58;100856.47;;;25.14;100.00
56402;BME280;42299;35.160;26.100;2023-09-18T05:54:24;100851.97;;;25.15;100.00
56402;BME280;42299;35.160;26.100;2023-09-18T06:04:47;100848.94;;;25.42;100.00
56402;BME280;42299;35.160;26.100;2023-09-18T06:15:11;100857.13;;;25.82;100.00
56402;BME280;42299;35.160;26.100;2023-09-18T06:25:34;100864.38;;;26.00;100.00
56402;BME280;42299;35.160;26.100;2023-09-18T06:36:00;100880.09;;;26.31;100.00
56402;BME280;42299;35.160;26.100;2023-09-18T06:46:23;100879.09;;;27.24;100.00
56402;BME280;42299;35.160;26.100;2023-09-18T06:56:48;100886.81;;;27.31;100.00
56402;BME280;42299;35.160;26.100;2023-09-18T07:07:11;100895.06;;;27.97;100.00
56402;BME280;42299;35.160;26.100;2023-09-18T07:17:35;100885.22;;;28.12;100.00
56402;BME280;42299;35.160;26.100;2023-09-18T07:27:58;100896.03;;;28.78;100.00
56402;BME280;42299;35.160;26.100;2023-09-18T07:38:23;100884.34;;;29.07;100.00
56402;BME280;42299;35.160;26.100;2023-09-18T07:48:46;100890.03;;;28.55;100.00
56402;BME280;42299;35.160;26.100;2023-09-18T07:59:10;100882.50;;;28.92;97.70
56402;BME280;42299;35.160;26.100;2023-09-18T08:09:32;100896.03;;;29.39;91.45
56402;BME280;42299;35.160;26.100;2023-09-18T08:19:58;100888.84;;;29.22;89.17
56402;BME280;42299;35.160;26.100;2023-09-18T08:30:21;100887.84;;;29.69;81.63
56402;BME280;42299;35.160;26.100;2023-09-18T08:40:46;100893.59;;;30.78;74.19
56402;BME280;42299;35.160;26.100;2023-09-18T08:51:10;100886.78;;;31.24;70.55
56402;BME280;42299;35.160;26.100;2023-09-18T09:01:34;100887.56;;;31.26;67.54
56402;BME280;42299;35.160;26.100;2023-09-18T09:11:57;100884.00;;;31.51;60.46
56402;BME280;42299;35.160;26.100;2023-09-18T09:22:22;100889.75;;;31.86;59.81
56402;BME280;42299;35.160;26.100;2023-09-18T09:32:48;100872.72;;;32.08;60.72
56402;BME280;42299;35.160;26.100;2023-09-18T09:43:13;100882.88;;;32.06;56.92
56402;BME280;42299;35.160;26.100;2023-09-18T09:53:42;100882.97;;;32.42;55.91
56402;BME280;42299;35.160;26.100;2023-09-18T10:04:13;100885.75;;;32.66;52.99
56402;BME280;42299;35.160;26.100;2023-09-18T10:14:41;100880.94;;;32.70;53.33
56402;BME280;42299;35.160;26.100;2023-09-18T10:25:15;100886.72;;;32.78;52.74
56402;BME280;42299;35.160;26.100;2023-09-18T10:35:39;100893.31;;;32.75;51.43
56402;BME280;42299;35.160;26.100;2023-09-18T10:46:05;100886.47;;;32.32;50.35
56402;BME280;42299;35.160;26.100;2023-09-18T10:56:28;100883.97;;;31.91;50.02
56402;BME280;42299;35.160;26.100;2023-09-18T11:07:06;100871.09;;;31.80;52.10
56402;BME280;42299;35.160;26.100;2023-09-18T11:17:31;100870.47;;;31.37;53.79
56402;BME280;42299;35.160;26.100;2023-09-18T11:27:56;100875.13;;;30.96;53.89
56402;BME280;42299;35.160;26.100;2023-09-18T11:38:19;100875.38;;;30.78;56.18
56402;BME280;42299;35.160;26.100;2023-09-18T11:48:47;100856.75;;;30.85;57.63
56402;BME280;42299;35.160;26.100;2023-09-18T11:59:11;100857.22;;;30.92;55.44
56402;BME280;42299;35.160;26.100;2023-09-18T12:09:35;100842.75;;;30.77;55.27
56402;BME280;42299;35.160;26.100;2023-09-18T12:19:58;100837.66;;;30.44;57.25
56402;BME280;42299;35.160;26.100;2023-09-18T12:30:22;100834.88;;;30.31;58.70
56402;BME280;42299;35.160;26.100;2023-09-18T12:40:46;100840.81;;;30.09;60.06
56402;BME280;42299;35.160;26.100;2023-09-18T12:51:10;100832.88;;;29.92;61.04
56402;BME280;42299;35.160;26.100;2023-09-18T13:01:33;100847.09;;;29.67;61.70
56402;BME280;42299;35.160;26.100;2023-09-18T13:12:01;100834.25;;;29.55;61.23
56402;BME280;42299;35.160;26.100;2023-09-18T13:22:25;100849.59;;;29.42;62.11
56402;BME280;42299;35.160;26.100;2023-09-18T13:32:49;100843.69;;;29.20;66.28
56402;BME280;42299;35.160;26.100;2023-09-18T13:43:13;100851.97;;;29.03;67.27
56402;BME280;42299;35.160;26.100;2023-09-18T13:53:39;100844.06;;;29.14;66.75
56402;BME280;42299;35.160;26.100;2023-09-18T14:04:02;100852.31;;;28.97;63.62
56402;BME280;42299;35.160;26.100;2023-09-18T14:14:26;100860.13;;;29.03;65.04
56402;BME280;42299;35.160;26.100;2023-09-18T14:24:49;100871.91;;;28.87;67.78
56402;BME280;42299;35.160;26.100;2023-09-18T14:35:13;100869.28;;;28.86;64.08
56402;BME280;42299;35.160;26.100;2023-09-18T14:45:36;100875.13;;;28.31;64.67
56402;BME280;42299;35.160;26.100;2023-09-18T14:56:01;100864.81;;;27.72;65.19
56402;BME280;42299;35.160;26.100;2023-09-18T15:06:34;100870.47;;;27.50;63.96
56402;BME280;42299;35.160;26.100;2023-09-18T15:16:59;100876.13;;;27.46;68.84
56402;BME280;42299;35.160;26.100;2023-09-18T15:27:22;100874.06;;;27.33;69.06
56402;BME280;42299;35.160;26.100;2023-09-18T15:37:48;100873.31;;;26.95;68.88
56402;BME280;42299;35.160;26.100;2023-09-18T15:48:10;100894.13;;;26.76;72.42
56402;BME280;42299;35.160;26.100;2023-09-18T15:58:36;100888.44;;;26.45;74.76
56402;BME280;42299;35.160;26.100;2023-09-18T16:08:58;100890.66;;;26.16;79.95
56402;BME280;42299;35.160;26.100;2023-09-18T16:19:23;100899.25;;;26.06;81.95
56402;BME280;42299;35.160;26.100;2023-09-18T16:29:46;100892.22;;;25.83;84.37
56402;BME280;42299;35.160;26.100;2023-09-18T16:40:12;100893.50;;;25.74;86.32
56402;BME280;42299;35.160;26.100;2023-09-18T16:50:34;100896.75;;;25.62;89.91
56402;BME280;42299;35.160;26.100;2023-09-18T17:00:59;100900.59;;;25.57;91.34
56402;BME280;42299;35.160;26.100;2023-09-18T17:11:23;100906.47;;;25.46;92.19
56402;BME280;42299;35.160;26.100;2023-09-18T17:21:48;100914.16;;;25.35;91.90
56402;BME280;42299;35.160;26.100;2023-09-18T17:32:11;100919.09;;;25.25;91.83
56402;BME280;42299;35.160;26.100;2023-09-18T17:42:35;100913.94;;;25.19;91.96
56402;BME280;42299;35.160;26.100;2023-09-18T17:52:58;100924.31;;;25.08;91.87
56402;BME280;42299;35.160;26.100;2023-09-18T18:03:22;100938.16;;;25.00;92.65
56402;BME280;42299;35.160;26.100;2023-09-18T18:13:45;100945.63;;;24.94;94.22
56402;BME280;42299;35.160;26.100;2023-09-18T18:24:09;100941.16;;;24.93;93.59
56402;BME280;42299;35.160;26.100;2023-09-18T18:34:31;100938.31;;;24.96;93.89
56402;BME280;42299;35.160;26.100;2023-09-18T18:44:55;100952.09;;;24.88;93.43
56402;BME280;42299;35.160;26.100;2023-09-18T18:55:18;100948.78;;;24.82;93.20
56402;BME280;42299;35.160;26.100;2023-09-18T19:05:43;100939.09;;;24.76;95.54
56402;BME280;42299;35.160;26.100;2023-09-18T19:16:06;100946.41;;;24.74;97.41
56402;BME280;42299;35.160;26.100;2023-09-18T19:26:31;100929.63;;;24.66;98.45
56402;BME280;42299;35.160;26.100;2023-09-18T19:36:54;100926.22;;;24.61;97.37
56402;BME280;42299;35.160;26.100;2023-09-18T19:47:18;100922.81;;;24.56;97.62
56402;BME280;42299;35.160;26.100;2023-09-18T19:57:41;100911.25;;;24.52;98.79
56402;BME280;42299;35.160;26.100;2023-09-18T20:08:06;100913.81;;;24.55;100.00
56402;BME280;42299;35.160;26.100;2023-09-18T20:18:28;100912.25;;;24.50;100.00
56402;BME280;42299;35.160;26.100;2023-09-18T20:28:53;100922.16;;;24.49;100.00
56402;BME280;42299;35.160;26.100;2023-09-18T20:39:16;100927.06;;;24.40;100.00
56402;BME280;42299;35.160;26.100;2023-09-18T20:49:41;100919.72;;;24.43;100.00
56402;BME280;42299;35.160;26.100;2023-09-18T21:00:10;100913.63;;;24.38;100.00
56402;BME280;42299;35.160;26.100;2023-09-18T21:10:36;100919.06;;;24.37;100.00
56402;BME280;42299;35.160;26.100;2023-09-18T21:20:59;100920.97;;;24.35;100.00
56402;BME280;42299;35.160;26.100;2023-09-18T21:31:23;100906.59;;;24.34;100.00
56402;BME280;42299;35.160;26.100;2023-09-18T21:41:45;100916.66;;;24.29;100.00
56402;BME280;42299;35.160;26.100;2023-09-18T21:52:11;100911.50;;;24.23;100.00
56402;BME280;42299;35.160;26.100;2023-09-18T22:02:34;100892.16;;;24.10;100.00
56402;BME280;42299;35.160;26.100;2023-09-18T22:12:59;100903.03;;;24.09;100.00
56402;BME280;42299;35.160;26.100;2023-09-18T22:23:21;100894.13;;;24.07;100.00
56402;BME280;42299;35.160;26.100;2023-09-18T22:33:48;100882.31;;;24.09;100.00
56402;BME280;42299;35.160;26.100;2023-09-18T22:55:14;100890.06;;;24.18;100.00
56402;BME280;42299;35.160;26.100;2023-09-18T23:05:38;100886.06;;;24.05;100.00
56402;BME280;42299;35.160;26.100;2023-09-18T23:16:03;100883.56;;;24.01;100.00
56402;BME280;42299;35.160;26.100;2023-09-18T23:26:26;100873.06;;;23.93;100.00
56402;BME280;42299;35.160;26.100;2023-09-18T23:36:51;100854.38;;;23.89;100.00
56402;BME280;42299;35.160;26.100;2023-09-18T23:47:15;100859.03;;;23.83;100.00
56402;BME280;42299;35.160;26.100;2023-09-18T23:57:50;100855.63;;;23.78;100.00
